Cedar Rapids, IA (52401)

2:13 PM CDT on July 24, 2016 (GMT -0500)
Downtown Cedar Rapids - KCRG | | Change Station

Elev 768 ft 41.98 °N, 91.66 °W | Updated 26 seconds ago

Overcast
Overcast
86.9 °F
Feels Like 100 °F
N
2.9
Wind Variable Wind from WNW
Gusts 4.0 mph

Today
High -- | Low -- °F
--% Chance of Precip.
Yesterday
High -- | Low -- °F
Precip. -- in
Pressure 29.87 in
Visibility 8.0 miles
Clouds Few 2000 ft
Scattered Clouds 2500 ft
Overcast 3100 ft
Heat Index 100 °F
Dew Point 78 °F
Humidity 75%
Rainfall 0.00 in
Snow Depth Not available.
5:52 AM 8:32 PM
Waning Gibbous, 74% visible
METAR KCID 241852Z 34008KT 8SM FEW020 SCT025 OVC031 29/27 A2989 RMK AO2 SLP114 T02890267
Pressure 29.87 in
Visibility 8.0 miles
Clouds Few 2000 ft
Scattered Clouds 2500 ft
Overcast 3100 ft
Heat Index 100 °F
Dew Point 78 °F
Humidity 75%
Rainfall 0.00 in
Snow Depth Not available.
5:52 AM 8:32 PM
Waning Gibbous, 74% visible
METAR KCID 241852Z 34008KT 8SM FEW020 SCT025 OVC031 29/27 A2989 RMK AO2 SLP114 T02890267

10-Day Weather Forecast

Almanac

Astronomy

Jul. 24, 2016 Rise Set
Actual Time
Civil Twilight
Nautical Twilight
Astronomical Twilight
Moon
Length of Visible Light
Length of Day
Tomorrow will be .
, % of the Moon is Illuminated

Today's Extremes

State Highs State Lows

Community

WunderPhotos

Upload Photos

1,927,168 photos uploaded!

WunderBlog® & News

Nearby

Air Quality

  Air Quality AQ Index Pollutant
Not available.

Snow Depth

Station Depth Elevation

Earthquake Activity

City Distance Mag. Time & Date
Minimum magnitude displayed is 2.5.

Coastal Water Temperatures

Place Temperature

Stations

Nearby Weather Stations

Station Location Temp. Windchill Dew Point Humidity Wind Precip. Elev Updated Type
                   

Watches & Warnings

There are currently no watches in effect.